createdAt,value
2018-05-21T00:00:54.033Z,99.90
2018-05-21T00:03:21.519Z,99.90
2018-05-21T00:05:49.753Z,99.90
2018-05-21T00:08:17.227Z,99.90
2018-05-21T00:10:44.700Z,99.90
2018-05-21T00:13:12.928Z,99.90
2018-05-21T00:15:40.484Z,99.90
2018-05-21T00:18:07.949Z,99.90
2018-05-21T00:20:35.429Z,99.90
2018-05-21T00:23:02.901Z,99.90
2018-05-21T00:25:31.129Z,99.90
2018-05-21T00:27:58.598Z,99.90
2018-05-21T00:30:26.076Z,99.90
2018-05-21T00:32:53.633Z,99.90
2018-05-21T00:35:21.092Z,99.90
2018-05-21T00:37:48.639Z,99.90
2018-05-21T00:40:16.104Z,99.90
2018-05-21T00:42:43.561Z,99.90
2018-05-21T00:45:11.037Z,99.90
2018-05-21T00:47:39.271Z,99.90
2018-05-21T00:50:06.731Z,99.90
2018-05-21T00:52:34.203Z,99.90
2018-05-21T00:55:14.393Z,99.90
2018-05-21T00:57:41.906Z,99.90
2018-05-21T01:00:09.363Z,99.90
2018-05-21T01:02:36.834Z,99.90
2018-05-21T01:05:05.078Z,99.90
2018-05-21T01:07:32.552Z,99.90
2018-05-21T01:10:00.117Z,99.90
2018-05-21T01:12:27.618Z,99.90
2018-05-21T01:14:55.208Z,99.90
2018-05-21T01:17:22.685Z,99.90
2018-05-21T01:19:50.156Z,99.90
2018-05-21T01:22:18.397Z,99.90
2018-05-21T01:24:45.860Z,99.90
2018-05-21T01:27:13.348Z,99.90
2018-05-21T01:29:41.569Z,99.90
2018-05-21T01:32:09.029Z,99.90
2018-05-21T01:34:36.505Z,99.90
2018-05-21T01:37:04.725Z,99.90
2018-05-21T01:39:32.194Z,99.90
2018-05-21T01:41:59.657Z,99.90
2018-05-21T01:44:27.122Z,99.90
2018-05-21T01:46:54.581Z,99.90
2018-05-21T01:49:22.054Z,99.90
2018-05-21T01:51:49.516Z,99.90
2018-05-21T01:54:16.986Z,99.90
2018-05-21T01:56:44.462Z,99.90
2018-05-21T01:59:12.717Z,99.90
2018-05-21T02:01:40.178Z,99.90
2018-05-21T02:04:07.658Z,99.90
2018-05-21T02:06:35.881Z,99.90
2018-05-21T02:09:03.340Z,99.90
2018-05-21T02:11:30.817Z,99.90
2018-05-21T02:13:59.041Z,99.90
2018-05-21T02:16:26.513Z,99.90
2018-05-21T02:18:53.997Z,99.90
2018-05-21T02:21:21.463Z,99.90
2018-05-21T02:23:49.025Z,99.90
2018-05-21T02:26:16.500Z,99.90
2018-05-21T02:28:44.729Z,99.90
2018-05-21T02:31:12.186Z,99.90
2018-05-21T02:33:39.665Z,99.90
2018-05-21T02:36:07.884Z,99.90
2018-05-21T02:38:35.368Z,99.90
2018-05-21T02:41:02.822Z,99.90
2018-05-21T02:43:30.280Z,99.90
2018-05-21T02:45:57.753Z,99.90
2018-05-21T02:48:25.216Z,99.90
2018-05-21T02:50:52.685Z,99.90
2018-05-21T02:53:20.157Z,99.90
2018-05-21T02:55:48.393Z,99.90
2018-05-21T02:58:15.849Z,99.90
2018-05-21T03:00:43.317Z,99.90
2018-05-21T03:03:10.785Z,99.90
2018-05-21T03:05:38.232Z,99.90
2018-05-21T03:08:05.797Z,99.90
2018-05-21T03:10:33.265Z,99.90
2018-05-21T03:13:01.496Z,99.90
2018-05-21T03:15:28.968Z,99.90
2018-05-21T03:17:56.435Z,99.90
2018-05-21T03:20:23.887Z,99.90
2018-05-21T03:22:51.401Z,99.90
2018-05-21T03:25:18.865Z,99.90
2018-05-21T03:27:46.321Z,99.90
2018-05-21T03:30:13.873Z,99.90
2018-05-21T03:32:41.338Z,99.90
2018-05-21T03:35:08.793Z,99.90
2018-05-21T03:37:36.269Z,99.90
2018-05-21T03:40:03.740Z,99.90
2018-05-21T03:42:31.204Z,99.90
2018-05-21T03:44:58.688Z,99.90
2018-05-21T03:47:26.922Z,99.90
2018-05-21T03:49:54.383Z,99.90
2018-05-21T03:52:21.860Z,99.90
2018-05-21T03:54:50.085Z,99.90
2018-05-21T03:57:17.545Z,99.90
2018-05-21T03:59:56.949Z,99.90
2018-05-21T04:02:36.358Z,99.90
2018-05-21T04:05:03.838Z,99.90
2018-05-21T04:07:32.057Z,99.90
2018-05-21T04:09:59.517Z,99.90
2018-05-21T04:12:26.988Z,99.90
2018-05-21T04:14:55.308Z,99.90
2018-05-21T04:17:22.774Z,99.90
2018-05-21T04:19:50.253Z,99.90
2018-05-21T04:22:17.705Z,99.90
2018-05-21T04:24:45.161Z,99.90
2018-05-21T04:27:12.632Z,99.90
2018-05-21T04:29:40.093Z,99.90
2018-05-21T04:32:07.549Z,99.90
2018-05-21T04:34:35.033Z,99.90
2018-05-21T04:37:03.254Z,99.90
2018-05-21T04:39:30.729Z,99.90
2018-05-21T04:41:58.196Z,99.90
2018-05-21T04:44:25.662Z,99.90
2018-05-21T04:46:53.141Z,99.90
2018-05-21T04:49:21.390Z,99.90
2018-05-21T04:51:48.848Z,99.90
2018-05-21T04:54:16.320Z,99.90
2018-05-21T04:56:43.817Z,99.90
2018-05-21T04:59:11.290Z,99.90
2018-05-21T05:01:38.753Z,99.90
2018-05-21T05:04:06.228Z,99.90
2018-05-21T05:06:33.705Z,99.90
2018-05-21T05:09:01.164Z,99.90
2018-05-21T05:11:29.406Z,99.90
2018-05-21T05:13:56.859Z,99.90
2018-05-21T05:16:24.312Z,99.90
2018-05-21T05:18:51.798Z,99.90
2018-05-21T05:21:19.257Z,99.90
2018-05-21T05:23:46.741Z,99.90
2018-05-21T05:26:14.206Z,99.90
2018-05-21T05:28:41.676Z,99.90
2018-05-21T05:31:09.154Z,99.90
2018-05-21T05:33:36.609Z,99.90
2018-05-21T05:36:04.153Z,99.90
2018-05-21T05:38:31.599Z,99.90
2018-05-21T05:40:59.057Z,99.90
2018-05-21T05:43:26.521Z,99.90
2018-05-21T05:45:54.000Z,99.90
2018-05-21T05:48:21.453Z,99.90
2018-05-21T05:50:48.913Z,99.90
2018-05-21T05:53:16.392Z,99.90
2018-05-21T05:55:43.895Z,99.90
2018-05-21T05:58:11.352Z,99.90
2018-05-21T06:00:38.825Z,99.90
2018-05-21T06:03:06.295Z,99.90
2018-05-21T06:05:33.755Z,99.90
2018-05-21T06:08:01.233Z,99.90
2018-05-21T06:10:28.701Z,99.90
2018-05-21T06:12:56.928Z,99.90
2018-05-21T06:15:24.397Z,99.90
2018-05-21T06:17:51.865Z,99.90
2018-05-21T06:20:19.336Z,99.90
2018-05-21T06:22:46.817Z,99.90
2018-05-21T06:25:14.276Z,99.90
2018-05-21T06:27:41.749Z,99.90
2018-05-21T06:30:09.209Z,99.90
2018-05-21T06:32:36.665Z,99.90
2018-05-21T06:35:04.136Z,99.90
2018-05-21T06:37:31.593Z,99.90
2018-05-21T06:39:59.061Z,99.90
2018-05-21T06:42:26.544Z,99.90
2018-05-21T06:44:54.774Z,99.90
2018-05-21T06:47:22.303Z,99.90
2018-05-21T06:49:49.824Z,99.90
2018-05-21T06:52:17.388Z,99.90
2018-05-21T06:54:44.862Z,99.90
2018-05-21T06:57:13.104Z,99.90
2018-05-21T06:59:40.560Z,99.90
2018-05-21T07:02:08.022Z,99.90
2018-05-21T07:04:35.497Z,99.90
2018-05-21T07:07:03.741Z,99.90
2018-05-21T07:09:31.198Z,99.90
2018-05-21T07:11:58.684Z,99.90
2018-05-21T07:14:26.914Z,99.90
2018-05-21T07:16:54.369Z,99.90
2018-05-21T07:19:21.866Z,99.90
2018-05-21T07:21:49.321Z,99.90
2018-05-21T07:24:16.796Z,99.90
2018-05-21T07:26:45.021Z,99.90
2018-05-21T07:29:12.525Z,99.90
2018-05-21T07:31:40.769Z,99.90
2018-05-21T07:34:08.229Z,99.90
2018-05-21T07:36:36.359Z,99.90
2018-05-21T07:39:03.846Z,99.90
2018-05-21T07:41:31.306Z,99.90
2018-05-21T07:43:58.769Z,99.90
2018-05-21T07:46:26.333Z,99.90
2018-05-21T07:48:55.304Z,99.90
2018-05-21T07:51:22.781Z,99.90
2018-05-21T07:53:50.255Z,99.90
2018-05-21T07:56:17.716Z,99.90
2018-05-21T07:58:45.951Z,99.90
2018-05-21T08:01:14.221Z,99.90
2018-05-21T08:03:42.389Z,99.90
2018-05-21T08:06:09.857Z,99.90
2018-05-21T08:08:40.221Z,99.90
2018-05-21T08:11:08.528Z,99.90
2018-05-21T08:13:36.806Z,99.90
2018-05-21T08:16:04.873Z,99.90
2018-05-21T08:18:32.945Z,99.90
2018-05-21T08:21:05.262Z,99.90
2018-05-21T08:23:32.717Z,99.90
2018-05-21T08:26:00.894Z,99.90
2018-05-21T08:28:29.842Z,99.90
2018-05-21T08:31:02.946Z,99.90
2018-05-21T08:33:31.414Z,99.90
2018-05-21T08:35:58.873Z,99.90
2018-05-21T08:38:27.243Z,99.90
2018-05-21T08:40:54.741Z,99.90
2018-05-21T08:43:22.826Z,99.90
2018-05-21T08:45:51.840Z,99.90
2018-05-21T08:48:19.663Z,99.90
2018-05-21T08:50:47.095Z,99.90
2018-05-21T08:53:14.590Z,99.90
2018-05-21T08:55:42.202Z,99.90
2018-05-21T08:58:10.463Z,99.90
2018-05-21T09:00:39.077Z,99.90
2018-05-21T09:03:07.394Z,99.90
2018-05-21T09:05:36.427Z,99.90
2018-05-21T09:08:04.757Z,99.90
2018-05-21T09:10:33.986Z,99.90
2018-05-21T09:13:02.728Z,99.90
2018-05-21T09:15:31.342Z,99.90
2018-05-21T09:18:00.233Z,99.90
2018-05-21T09:20:28.445Z,99.90
2018-05-21T09:22:55.933Z,99.90
2018-05-21T09:25:24.168Z,99.90
2018-05-21T09:27:54.835Z,99.90
2018-05-21T09:30:24.785Z,95.70
2018-05-21T09:32:54.021Z,95.60
2018-05-21T09:35:21.520Z,93.90
2018-05-21T09:37:48.973Z,91.70
2018-05-21T09:40:17.028Z,89.50
2018-05-21T09:42:45.918Z,89.60
2018-05-21T09:45:13.409Z,87.10
2018-05-21T09:47:41.654Z,86.30
2018-05-21T09:50:09.589Z,86.00
2018-05-21T09:52:39.161Z,84.60
2018-05-21T09:55:07.397Z,82.70
2018-05-21T09:57:34.886Z,82.80
2018-05-21T10:00:03.864Z,77.60
2018-05-21T10:02:32.156Z,77.50
2018-05-21T10:05:00.468Z,75.40
2018-05-21T10:07:27.943Z,75.40
2018-05-21T10:09:56.399Z,73.30
2018-05-21T10:12:23.893Z,75.40
2018-05-21T10:14:51.414Z,79.00
2018-05-21T10:17:21.269Z,81.60
2018-05-21T10:19:49.703Z,83.00
2018-05-21T10:22:17.158Z,81.10
2018-05-21T10:24:44.622Z,80.50
2018-05-21T10:27:12.136Z,80.00
2018-05-21T10:29:42.051Z,76.00
2018-05-21T10:32:09.504Z,75.90
2018-05-21T10:34:38.676Z,75.20
2018-05-21T10:37:06.244Z,75.00
2018-05-21T10:39:34.413Z,76.90
2018-05-21T10:42:02.820Z,76.90
2018-05-21T10:44:34.282Z,74.80
2018-05-21T10:47:02.410Z,74.80
2018-05-21T10:49:29.910Z,77.50
2018-05-21T10:51:58.129Z,76.80
2018-05-21T10:54:25.637Z,76.70
2018-05-21T10:56:53.885Z,74.60
2018-05-21T10:59:21.340Z,74.40
2018-05-21T11:01:49.586Z,75.80
2018-05-21T11:04:17.054Z,75.90
2018-05-21T11:06:44.521Z,73.90
2018-05-21T11:09:12.013Z,74.70
2018-05-21T11:11:40.237Z,68.20
2018-05-21T11:14:07.731Z,68.00
2018-05-21T11:16:35.216Z,65.20
2018-05-21T11:19:02.683Z,67.70
2018-05-21T11:21:30.136Z,67.70
2018-05-21T11:23:57.617Z,69.30
2018-05-21T11:26:25.085Z,69.30
2018-05-21T11:28:52.554Z,71.40
2018-05-21T11:31:20.035Z,66.90
2018-05-21T11:33:48.272Z,65.10
2018-05-21T11:36:15.740Z,65.70
2018-05-21T11:38:43.213Z,65.40
2018-05-21T11:41:11.442Z,68.10
2018-05-21T11:43:38.908Z,67.50
2018-05-21T11:46:06.389Z,67.50
2018-05-21T11:48:33.865Z,66.00
2018-05-21T11:51:02.115Z,66.00
2018-05-21T11:53:29.591Z,66.10
2018-05-21T11:55:57.044Z,61.20
2018-05-21T11:58:25.289Z,63.90
2018-05-21T12:00:52.785Z,63.10
2018-05-21T12:03:21.016Z,59.70
2018-05-21T12:05:48.493Z,59.70
2018-05-21T12:08:15.965Z,60.50
2018-05-21T12:10:44.200Z,61.80
2018-05-21T12:13:11.670Z,61.70
2018-05-21T12:15:39.133Z,60.00
2018-05-21T12:18:06.605Z,59.00
2018-05-21T12:20:34.853Z,59.20
2018-05-21T12:23:02.312Z,58.90
2018-05-21T12:25:29.785Z,58.10
2018-05-21T12:27:57.347Z,58.40
2018-05-21T12:30:24.822Z,57.40
2018-05-21T12:32:53.060Z,56.80
2018-05-21T12:35:20.545Z,56.80
2018-05-21T12:37:48.787Z,55.90
2018-05-21T12:40:16.242Z,55.90
2018-05-21T12:42:43.722Z,55.20
2018-05-21T12:45:11.185Z,55.10
2018-05-21T12:47:38.645Z,56.80
2018-05-21T12:50:06.885Z,55.30
2018-05-21T12:52:34.353Z,55.30
2018-05-21T12:55:01.815Z,56.10
2018-05-21T12:57:29.286Z,56.70
2018-05-21T12:59:56.786Z,54.80
2018-05-21T13:02:24.299Z,56.40
2018-05-21T13:04:51.775Z,55.30
2018-05-21T13:07:20.009Z,55.00
2018-05-21T13:09:47.473Z,55.00
2018-05-21T13:12:15.033Z,56.80
2018-05-21T13:14:44.004Z,56.00
2018-05-21T13:17:11.477Z,55.90
2018-05-21T13:19:38.984Z,55.80
2018-05-21T13:22:06.448Z,58.00
2018-05-21T13:24:33.916Z,57.40
2018-05-21T13:27:01.381Z,55.70
2018-05-21T13:29:28.874Z,58.40
2018-05-21T13:31:56.357Z,55.00
2018-05-21T13:34:24.593Z,57.50
2018-05-21T13:36:53.570Z,58.90
2018-05-21T13:39:21.081Z,58.90
2018-05-21T13:41:49.305Z,58.30
2018-05-21T13:44:16.765Z,58.20
2018-05-21T13:46:44.245Z,54.70
2018-05-21T13:49:11.714Z,53.30
2018-05-21T13:51:39.945Z,56.50
2018-05-21T13:54:07.425Z,56.50
2018-05-21T13:56:35.476Z,55.30
2018-05-21T13:59:02.980Z,57.60
2018-05-21T14:01:31.204Z,56.80
2018-05-21T14:03:58.661Z,56.80
2018-05-21T14:06:26.155Z,56.80
2018-05-21T14:08:54.394Z,56.90
2018-05-21T14:11:21.842Z,56.80
2018-05-21T14:13:49.329Z,55.80
2018-05-21T14:16:17.595Z,58.40
2018-05-21T14:18:45.027Z,58.40
2018-05-21T14:21:12.504Z,57.30
2018-05-21T14:23:39.978Z,57.90
2018-05-21T14:26:07.456Z,58.40
2018-05-21T14:28:35.713Z,60.40
2018-05-21T14:31:03.216Z,60.40
2018-05-21T14:33:30.677Z,61.30
2018-05-21T14:35:58.161Z,60.30
2018-05-21T14:38:25.643Z,58.90
2018-05-21T14:40:56.113Z,58.70
2018-05-21T14:43:23.697Z,57.20
2018-05-21T14:45:51.166Z,58.40
2018-05-21T14:48:18.627Z,58.70
2018-05-21T14:50:46.121Z,57.60
2018-05-21T14:53:14.353Z,59.90
2018-05-21T14:55:41.818Z,59.80
2018-05-21T14:58:09.290Z,61.90
2018-05-21T15:00:37.513Z,63.00
2018-05-21T15:03:05.005Z,63.50
2018-05-21T15:05:32.461Z,58.30
2018-05-21T15:07:59.925Z,61.20
2018-05-21T15:10:27.414Z,59.70
2018-05-21T15:12:54.893Z,59.20
2018-05-21T15:15:22.360Z,59.10
2018-05-21T15:17:49.841Z,57.20
2018-05-21T15:20:17.341Z,60.50
2018-05-21T15:22:44.806Z,59.40
2018-05-21T15:25:12.280Z,61.00
2018-05-21T15:27:39.756Z,60.90
2018-05-21T15:30:07.236Z,63.30
2018-05-21T15:32:34.714Z,62.20
2018-05-21T15:35:02.948Z,62.40
2018-05-21T15:37:30.421Z,62.40
2018-05-21T15:39:57.888Z,61.30
2018-05-21T15:42:25.372Z,61.30
2018-05-21T15:44:52.839Z,61.50
2018-05-21T15:47:20.319Z,63.20
2018-05-21T15:49:47.793Z,62.30
2018-05-21T15:52:16.060Z,63.80
2018-05-21T15:54:43.518Z,63.70
2018-05-21T15:57:11.025Z,65.70
2018-05-21T15:59:39.252Z,65.40
2018-05-21T16:02:06.750Z,65.20
2018-05-21T16:04:34.980Z,64.40
2018-05-21T16:07:02.468Z,64.30
2018-05-21T16:09:30.717Z,64.90
2018-05-21T16:11:58.226Z,64.80
2018-05-21T16:14:25.692Z,65.30
2018-05-21T16:16:53.217Z,65.20
2018-05-21T16:19:21.461Z,63.60
2018-05-21T16:21:48.951Z,63.50
2018-05-21T16:24:17.178Z,64.20
2018-05-21T16:26:44.655Z,64.10
2018-05-21T16:29:12.123Z,63.50
2018-05-21T16:31:39.605Z,64.90
2018-05-21T16:34:07.842Z,64.80
2018-05-21T16:36:35.334Z,64.70
2018-05-21T16:39:03.561Z,64.90
2018-05-21T16:41:31.149Z,65.00
2018-05-21T16:43:59.293Z,68.30
2018-05-21T16:46:26.760Z,68.20
2018-05-21T16:48:55.012Z,66.10
2018-05-21T16:51:22.483Z,66.20
2018-05-21T16:53:50.003Z,67.20
2018-05-21T16:56:18.197Z,68.30
2018-05-21T16:58:45.676Z,68.30
2018-05-21T17:01:13.137Z,66.60
2018-05-21T17:03:40.608Z,65.90
2018-05-21T17:06:08.074Z,67.30
2018-05-21T17:08:36.333Z,68.90
2018-05-21T17:11:03.792Z,68.60
2018-05-21T17:13:31.404Z,67.10
2018-05-21T17:15:58.889Z,67.90
2018-05-21T17:18:26.351Z,66.70
2018-05-21T17:20:53.839Z,66.70
2018-05-21T17:23:22.077Z,68.00
2018-05-21T17:25:49.556Z,68.00
2018-05-21T17:28:17.040Z,65.90
2018-05-21T17:30:45.285Z,67.50
2018-05-21T17:33:13.547Z,67.40
2018-05-21T17:35:41.047Z,67.30
2018-05-21T17:38:09.264Z,69.50
2018-05-21T17:40:36.731Z,69.50
2018-05-21T17:43:04.209Z,69.80
2018-05-21T17:45:32.432Z,70.30
2018-05-21T17:47:59.896Z,69.90
2018-05-21T17:50:27.388Z,70.00
2018-05-21T17:52:54.848Z,70.60
2018-05-21T17:55:22.325Z,70.10
2018-05-21T17:57:50.581Z,70.50
2018-05-21T18:00:18.045Z,70.50
2018-05-21T18:02:46.268Z,71.50
2018-05-21T18:05:13.741Z,70.80
2018-05-21T18:07:41.239Z,70.90
2018-05-21T18:10:09.486Z,71.50
2018-05-21T18:12:36.958Z,71.40
2018-05-21T18:15:05.182Z,71.00
2018-05-21T18:17:32.668Z,70.90
2018-05-21T18:20:00.120Z,71.30
2018-05-21T18:22:27.598Z,71.70
2018-05-21T18:24:55.077Z,71.60
2018-05-21T18:27:23.305Z,73.10
2018-05-21T18:29:50.781Z,73.00
2018-05-21T18:32:18.258Z,72.10
2018-05-21T18:34:46.495Z,70.90
2018-05-21T18:37:13.968Z,70.90
2018-05-21T18:39:42.222Z,71.10
2018-05-21T18:42:09.686Z,71.10
2018-05-21T18:44:37.149Z,71.70
2018-05-21T18:47:04.629Z,72.80
2018-05-21T18:49:32.098Z,73.50
2018-05-21T18:52:00.326Z,74.60
2018-05-21T18:54:27.813Z,74.60
2018-05-21T18:56:55.295Z,75.20
2018-05-21T18:59:23.533Z,76.40
2018-05-21T19:01:51.014Z,76.20
2018-05-21T19:04:19.247Z,76.10
2018-05-21T19:06:46.718Z,76.10
2018-05-21T19:09:14.183Z,77.20
2018-05-21T19:11:41.654Z,78.10
2018-05-21T19:14:09.914Z,79.90
2018-05-21T19:16:37.421Z,80.00
2018-05-21T19:19:04.905Z,78.90
2018-05-21T19:21:32.382Z,78.10
2018-05-21T19:23:59.833Z,78.40
2018-05-21T19:26:27.346Z,78.40
2018-05-21T19:28:54.810Z,78.00
2018-05-21T19:31:22.333Z,78.10
2018-05-21T19:33:50.636Z,77.70
2018-05-21T19:36:18.107Z,77.70
2018-05-21T19:38:45.561Z,77.90
2018-05-21T19:41:13.057Z,78.10
2018-05-21T19:43:40.584Z,78.10
2018-05-21T19:46:08.086Z,78.50
2018-05-21T19:48:35.604Z,78.80
2018-05-21T19:51:03.085Z,78.90
2018-05-21T19:53:30.574Z,78.80
2018-05-21T19:55:58.038Z,79.10
2018-05-21T19:58:25.511Z,80.00
2018-05-21T20:00:52.985Z,84.80
2018-05-21T20:03:20.453Z,91.20
2018-05-21T20:05:47.923Z,95.00
2018-05-21T20:08:15.418Z,98.00
2018-05-21T20:10:42.965Z,99.90
2018-05-21T20:13:11.193Z,99.90
2018-05-21T20:15:38.669Z,99.90
2018-05-21T20:18:07.017Z,99.90
2018-05-21T20:20:42.276Z,99.90
2018-05-21T20:23:09.745Z,99.90
2018-05-21T20:25:37.209Z,99.90
2018-05-21T20:28:04.703Z,99.90
2018-05-21T20:30:32.231Z,99.90
2018-05-21T20:33:00.462Z,99.90
2018-05-21T20:35:27.970Z,99.90
2018-05-21T20:37:57.373Z,99.90
2018-05-21T20:40:27.205Z,99.90
2018-05-21T20:42:54.821Z,99.90
2018-05-21T20:45:22.586Z,99.90
2018-05-21T20:47:50.729Z,99.90
2018-05-21T20:50:19.069Z,99.90
2018-05-21T20:52:50.827Z,99.90
2018-05-21T20:55:24.073Z,99.90
2018-05-21T20:57:52.105Z,99.90
2018-05-21T21:00:21.779Z,99.90
2018-05-21T21:02:50.024Z,99.90
2018-05-21T21:05:17.523Z,99.90
2018-05-21T21:07:46.453Z,99.90
2018-05-21T21:10:15.020Z,99.90
2018-05-21T21:12:47.840Z,99.90
2018-05-21T21:15:15.319Z,99.90
2018-05-21T21:17:42.797Z,99.90
2018-05-21T21:20:11.049Z,99.90
2018-05-21T21:22:41.168Z,99.90
2018-05-21T21:25:09.302Z,99.90
2018-05-21T21:27:37.560Z,99.90
2018-05-21T21:30:05.945Z,99.90
2018-05-21T21:32:33.455Z,99.90
2018-05-21T21:35:00.912Z,99.90
2018-05-21T21:37:29.224Z,99.90
2018-05-21T21:39:56.686Z,99.90
2018-05-21T21:42:24.172Z,99.90
2018-05-21T21:44:51.640Z,99.90
2018-05-21T21:47:19.127Z,99.90
2018-05-21T21:49:47.409Z,99.90
2018-05-21T21:52:15.641Z,99.90
2018-05-21T21:54:43.105Z,99.90
2018-05-21T21:57:10.584Z,99.90
2018-05-21T21:59:38.814Z,99.90
2018-05-21T22:02:06.285Z,99.90
2018-05-21T22:04:33.756Z,99.90
2018-05-21T22:07:01.230Z,99.90
2018-05-21T22:09:28.765Z,99.90
2018-05-21T22:11:56.237Z,99.90
2018-05-21T22:14:24.465Z,99.90
2018-05-21T22:16:51.933Z,99.90
2018-05-21T22:19:19.409Z,99.90
2018-05-21T22:21:46.868Z,99.90
2018-05-21T22:24:15.091Z,99.90
2018-05-21T22:26:42.587Z,99.90
2018-05-21T22:29:10.041Z,99.90
2018-05-21T22:31:37.517Z,99.90
2018-05-21T22:34:05.793Z,99.90
2018-05-21T22:36:33.260Z,99.90
2018-05-21T22:39:01.496Z,99.90
2018-05-21T22:41:28.977Z,99.90
2018-05-21T22:43:56.465Z,99.90
2018-05-21T22:46:23.941Z,99.90
2018-05-21T22:48:51.411Z,99.90
2018-05-21T22:51:18.881Z,99.90
2018-05-21T22:53:46.373Z,99.90
2018-05-21T22:56:14.601Z,99.90
2018-05-21T22:58:42.081Z,99.90
2018-05-21T23:01:09.554Z,99.90
2018-05-21T23:03:37.789Z,99.90
2018-05-21T23:06:05.277Z,99.90
2018-05-21T23:08:32.736Z,99.90
2018-05-21T23:11:00.225Z,99.90
2018-05-21T23:13:27.728Z,99.90
2018-05-21T23:15:55.190Z,99.90
2018-05-21T23:18:22.654Z,99.90
2018-05-21T23:20:50.171Z,99.90
2018-05-21T23:23:17.630Z,99.90
2018-05-21T23:25:45.105Z,99.90
2018-05-21T23:28:12.680Z,99.90
2018-05-21T23:30:40.137Z,99.90
2018-05-21T23:33:07.597Z,99.90
2018-05-21T23:35:35.077Z,99.90
2018-05-21T23:38:03.311Z,99.90
2018-05-21T23:40:30.788Z,99.90
2018-05-21T23:42:58.260Z,99.90
2018-05-21T23:45:25.752Z,99.90
2018-05-21T23:47:53.231Z,99.90
2018-05-21T23:50:20.701Z,99.90
2018-05-21T23:52:48.171Z,99.90
2018-05-21T23:55:15.950Z,99.90
2018-05-21T23:57:43.401Z,99.90
